Time;durP1;ratioP1;P1;durP2;ratioP2;P2;SDS_P1;SDS_P2;PMS_P1;PMS_P2;Temp;Humidity;BMP_temperature;BMP_pressure;BME280_temperature;BME280_humidity;BME280_pressure;Samples;Min_cycle;Max_cycle;Signal;HPM_P1;HPM_P2
2021/10/27 00:02:55;;;;;;;59.63;34.43;;;;;;;6.70;73.42;99652.56;2170324;82;20973;-79
2021/10/27 00:05:56;;;;;;;58.73;32.40;;;;;;;6.73;73.30;99647.91;2172128;81;20949;-79
2021/10/27 00:08:56;;;;;;;64.07;32.90;;;;;;;6.79;73.35;99655.93;2172407;81;21353;-79
2021/10/27 00:11:57;;;;;;;56.67;32.57;;;;;;;6.81;73.45;99655.17;2172761;81;20936;-79
2021/10/27 00:14:58;;;;;;;61.87;33.13;;;;;;;6.84;73.32;99657.00;2172369;81;20992;-80
2021/10/27 00:18:00;;;;;;;55.90;33.43;;;;;;;6.87;73.25;99664.91;2172426;81;21069;-79
2021/10/27 00:21:00;;;;;;;53.50;31.20;;;;;;;6.87;73.14;99658.00;2172564;81;20952;-79
2021/10/27 00:24:01;;;;;;;52.10;30.83;;;;;;;6.86;73.09;99656.23;2172534;81;20945;-78
2021/10/27 00:27:02;;;;;;;59.93;32.80;;;;;;;6.84;73.17;99665.67;2172372;81;21411;-79
2021/10/27 00:30:03;;;;;;;69.47;32.73;;;;;;;6.80;73.00;99663.78;2172280;81;20972;-80
2021/10/27 00:33:04;;;;;;;54.50;31.53;;;;;;;6.79;73.02;99659.41;2172541;81;20941;-80
2021/10/27 00:36:05;;;;;;;53.17;31.93;;;;;;;6.74;73.08;99665.24;2172543;81;21368;-80
2021/10/27 00:39:06;;;;;;;56.40;33.30;;;;;;;6.68;73.06;99665.47;2172441;81;21054;-79
2021/10/27 00:42:06;;;;;;;57.73;32.57;;;;;;;6.67;73.11;99666.70;2172524;81;20992;-79
2021/10/27 00:45:07;;;;;;;66.00;34.57;;;;;;;6.61;72.93;99656.08;2172328;81;21012;-79
2021/10/27 00:48:08;;;;;;;70.80;33.60;;;;;;;6.57;73.09;99667.16;2172519;82;21003;-80
2021/10/27 00:51:08;;;;;;;60.30;32.83;;;;;;;6.56;73.26;99658.49;2172355;81;21027;-79
2021/10/27 00:54:09;;;;;;;66.67;33.70;;;;;;;6.56;73.34;99654.60;2172086;82;21000;-79
2021/10/27 00:57:10;;;;;;;61.23;34.77;;;;;;;6.61;73.44;99661.27;2172482;81;20917;-80
2021/10/27 01:00:10;;;;;;;59.13;33.73;;;;;;;6.64;73.42;99656.20;2172556;81;20956;-79
2021/10/27 01:03:11;;;;;;;58.87;34.17;;;;;;;6.65;73.40;99651.49;2172638;82;20981;-79
2021/10/27 01:06:12;;;;;;;60.37;34.33;;;;;;;6.65;73.51;99658.86;2172236;81;21004;-79
2021/10/27 01:09:12;;;;;;;60.47;33.40;;;;;;;6.63;73.49;99651.84;2172124;81;21026;-79
2021/10/27 01:12:13;;;;;;;54.10;32.97;;;;;;;6.64;73.45;99654.91;2172829;81;21383;-79
2021/10/27 01:15:13;;;;;;;56.37;33.23;;;;;;;6.65;73.58;99650.19;2172891;81;20929;-80
2021/10/27 01:18:14;;;;;;;54.20;32.67;;;;;;;6.68;73.57;99658.09;2172489;81;20976;-80
2021/10/27 01:21:14;;;;;;;53.00;31.83;;;;;;;6.72;73.48;99659.99;2173024;81;20964;-81
2021/10/27 01:24:16;;;;;;;53.03;32.73;;;;;;;6.71;73.44;99664.30;2172967;81;20909;-80
2021/10/27 01:27:17;;;;;;;54.97;32.57;;;;;;;6.72;73.45;99665.19;2172371;82;21020;-79
2021/10/27 01:30:17;;;;;;;54.83;32.17;;;;;;;6.69;73.40;99670.25;2172588;81;21047;-79
2021/10/27 01:33:18;;;;;;;52.47;31.70;;;;;;;6.65;73.41;99667.95;2172334;81;20941;-78
2021/10/27 01:36:18;;;;;;;60.57;34.33;;;;;;;6.64;73.48;99664.88;2172043;81;20917;-79
2021/10/27 01:39:19;;;;;;;58.23;33.70;;;;;;;6.66;73.55;99674.02;2172340;81;20922;-80
2021/10/27 01:42:20;;;;;;;54.60;31.83;;;;;;;6.68;73.61;99676.27;2172764;81;20948;-81
2021/10/27 01:45:20;;;;;;;59.53;32.70;;;;;;;6.74;73.63;99680.81;2172758;82;21415;-80
2021/10/27 01:48:20;;;;;;;52.53;32.17;;;;;;;6.79;73.68;99676.69;2172438;81;20995;-80
2021/10/27 01:51:21;;;;;;;57.03;32.40;;;;;;;6.83;73.60;99672.98;2172557;81;21008;-78
2021/10/27 01:54:22;;;;;;;53.37;31.40;;;;;;;6.85;73.67;99672.63;2172497;82;20941;-80
2021/10/27 01:57:22;;;;;;;58.57;31.57;;;;;;;6.86;73.65;99685.19;2172544;81;20960;-80
2021/10/27 02:00:23;;;;;;;50.13;30.30;;;;;;;6.87;73.69;99692.16;2172696;81;20957;-79
2021/10/27 02:03:23;;;;;;;76.27;32.33;;;;;;;6.90;73.75;99681.48;2172607;81;21392;-80
2021/10/27 02:06:24;;;;;;;56.60;31.67;;;;;;;6.91;73.75;99681.95;2170351;81;21301;-79
2021/10/27 02:09:24;;;;;;;52.17;31.13;;;;;;;6.97;73.74;99687.84;2170788;81;20960;-79
2021/10/27 02:12:25;;;;;;;46.20;30.10;;;;;;;7.03;73.83;99693.27;2170361;81;20932;-79
2021/10/27 02:15:26;;;;;;;51.47;30.03;;;;;;;7.10;73.69;99690.50;2170269;81;20949;-79
2021/10/27 02:18:26;;;;;;;58.03;30.83;;;;;;;7.15;73.62;99679.88;2170842;81;21047;-79
2021/10/27 02:21:27;;;;;;;52.73;30.37;;;;;;;7.18;73.58;99682.59;2170572;82;20943;-80
2021/10/27 02:24:27;;;;;;;55.17;30.37;;;;;;;7.22;73.55;99684.06;2170483;81;21371;-78
2021/10/27 02:27:28;;;;;;;73.03;32.20;;;;;;;7.28;73.58;99683.00;2170532;82;20953;-79
2021/10/27 02:30:28;;;;;;;58.17;30.10;;;;;;;7.28;73.48;99677.80;2170307;81;20983;-79
2021/10/27 02:33:29;;;;;;;55.30;30.10;;;;;;;7.27;73.39;99682.94;2170291;82;20992;-78
2021/10/27 02:36:30;;;;;;;61.30;29.33;;;;;;;7.25;73.45;99684.19;2170083;81;20992;-78
2021/10/27 02:39:33;;;;;;;50.00;30.30;;;;;;;7.22;73.40;99681.88;2170483;82;20965;-79
2021/10/27 02:42:34;;;;;;;53.10;31.10;;;;;;;7.17;73.45;99680.82;2170745;81;20913;-78
2021/10/27 02:45:34;;;;;;;55.67;32.00;;;;;;;7.13;73.55;99684.12;2170278;81;21000;-79
2021/10/27 02:48:35;;;;;;;50.43;32.40;;;;;;;7.08;73.62;99679.17;2170369;81;21004;-78
2021/10/27 02:51:35;;;;;;;53.20;33.00;;;;;;;7.02;73.76;99679.41;2169279;81;21011;-78
2021/10/27 02:54:36;;;;;;;54.40;32.33;;;;;;;7.01;73.86;99678.05;2169041;81;20991;-79
2021/10/27 02:57:36;;;;;;;54.10;32.47;;;;;;;7.00;74.00;99687.55;2170253;82;20965;-79
2021/10/27 03:00:37;;;;;;;50.07;32.10;;;;;;;6.99;74.01;99691.38;2169217;82;20953;-79
2021/10/27 03:03:37;;;;;;;51.90;33.83;;;;;;;6.98;74.05;99694.80;2169013;81;21369;-79
2021/10/27 03:06:39;;;;;;;59.50;34.93;;;;;;;6.93;74.13;99694.58;2171877;81;20993;-79
2021/10/27 03:09:40;;;;;;;55.80;33.50;;;;;;;6.87;74.12;99699.94;2171872;82;20979;-79
2021/10/27 03:12:40;;;;;;;55.07;32.77;;;;;;;6.81;74.37;99696.69;2172358;81;21008;-78
2021/10/27 03:15:45;;;;;;;57.40;33.77;;;;;;;6.77;74.34;99700.39;2172378;81;20956;-79
2021/10/27 03:18:45;;;;;;;61.42;34.50;;;;;;;6.70;74.53;99703.16;2172477;81;21436;-79
2021/10/27 03:21:48;;;;;;;58.70;34.80;;;;;;;6.64;74.61;99697.30;2172244;81;20976;-80
2021/10/27 03:24:49;;;;;;;57.60;34.10;;;;;;;6.60;74.80;99701.01;2172324;81;20952;-79
2021/10/27 03:27:49;;;;;;;62.27;34.90;;;;;;;6.57;74.85;99704.77;2172595;81;20960;-80
2021/10/27 03:30:50;;;;;;;57.20;33.73;;;;;;;6.54;74.87;99712.02;2172028;81;21027;-79
2021/10/27 03:33:51;;;;;;;58.83;35.23;;;;;;;6.52;74.98;99711.06;2172392;81;21387;-79
2021/10/27 03:36:51;;;;;;;58.47;35.27;;;;;;;6.49;74.77;99713.95;2172852;82;21003;-80
2021/10/27 03:39:52;;;;;;;61.13;36.30;;;;;;;6.41;74.94;99712.33;2172361;81;20953;-79
2021/10/27 03:42:53;;;;;;;61.13;36.37;;;;;;;6.41;75.24;99711.45;2172437;81;21340;-80
2021/10/27 03:45:53;;;;;;;63.80;35.80;;;;;;;6.37;75.17;99718.21;2171507;81;21368;-79
2021/10/27 03:48:54;;;;;;;65.40;36.90;;;;;;;6.38;75.55;99719.56;2171305;81;20985;-80
2021/10/27 03:51:55;;;;;;;75.70;34.87;;;;;;;6.41;75.55;99720.52;2172026;81;21001;-80
2021/10/27 03:54:56;;;;;;;64.30;35.97;;;;;;;6.44;75.54;99721.53;2171604;82;21491;-80
2021/10/27 03:57:59;;;;;;;65.87;37.33;;;;;;;6.43;75.44;99720.17;2172186;81;20968;-80
2021/10/27 04:00:59;;;;;;;65.60;35.97;;;;;;;6.44;75.78;99727.13;2171802;81;21028;-79
2021/10/27 04:04:00;;;;;;;65.57;37.40;;;;;;;6.43;75.77;99735.73;2171540;82;21422;-80
2021/10/27 04:07:01;;;;;;;66.43;37.33;;;;;;;6.43;75.83;99742.22;2172321;81;21047;-79
2021/10/27 04:10:01;;;;;;;68.10;39.07;;;;;;;6.42;75.95;99739.15;2172153;81;21016;-79
2021/10/27 04:13:02;;;;;;;74.77;39.03;;;;;;;6.40;75.94;99744.27;2171742;81;21328;-80
2021/10/27 04:16:02;;;;;;;67.17;39.53;;;;;;;6.44;75.95;99748.77;2171382;81;20952;-79
2021/10/27 04:19:06;;;;;;;68.57;40.63;;;;;;;6.49;76.12;99751.55;2170819;81;21423;-79
2021/10/27 04:22:06;;;;;;;69.63;40.07;;;;;;;6.53;76.10;99753.45;2171021;81;20976;-78
2021/10/27 04:25:07;;;;;;;72.20;42.23;;;;;;;6.57;76.04;99758.84;2170463;81;20941;-80
2021/10/27 04:28:08;;;;;;;69.60;40.70;;;;;;;6.61;76.01;99754.66;2170357;81;20972;-80
2021/10/27 04:31:08;;;;;;;62.40;38.40;;;;;;;6.65;75.89;99756.56;2170107;82;20956;-78
2021/10/27 04:34:09;;;;;;;72.37;40.20;;;;;;;6.70;75.94;99745.96;2170498;81;20976;-78
2021/10/27 04:37:10;;;;;;;71.40;41.13;;;;;;;6.67;76.00;99747.14;2170345;81;20967;-79
2021/10/27 04:40:11;;;;;;;71.57;42.43;;;;;;;6.64;75.77;99750.90;2171163;81;20960;-80
2021/10/27 04:43:11;;;;;;;77.73;42.90;;;;;;;6.59;75.88;99755.01;2171004;81;21438;-78
2021/10/27 04:46:12;;;;;;;81.03;45.43;;;;;;;6.53;75.85;99750.45;2170876;81;21691;-81
2021/10/27 04:49:12;;;;;;;76.93;43.83;;;;;;;6.49;75.95;99761.92;2170640;81;21066;-79
2021/10/27 04:52:13;;;;;;;69.53;41.73;;;;;;;6.44;76.07;99763.44;2171234;81;20968;-79
2021/10/27 04:55:13;;;;;;;70.83;42.07;;;;;;;6.39;76.16;99762.84;2171398;81;20984;-79
2021/10/27 04:58:14;;;;;;;79.77;43.43;;;;;;;6.33;76.17;99757.80;2171177;82;21087;-80
2021/10/27 05:01:14;;;;;;;75.13;42.43;;;;;;;6.30;76.24;99765.03;2171020;82;20999;-79
2021/10/27 05:04:15;;;;;;;69.50;41.60;;;;;;;6.28;76.29;99761.48;2171365;82;21008;-79
2021/10/27 05:07:16;;;;;;;107.17;44.47;;;;;;;6.23;76.30;99760.81;2169227;81;20998;-82
2021/10/27 05:10:16;;;;;;;103.13;43.73;;;;;;;6.19;76.34;99768.87;2169669;81;21035;-80
2021/10/27 05:13:19;;;;;;;77.57;42.70;;;;;;;6.15;76.37;99767.38;2169572;81;20941;-79
2021/10/27 05:16:19;;;;;;;92.30;42.60;;;;;;;6.09;76.33;99773.17;2169602;81;21316;-82
2021/10/27 05:19:19;;;;;;;85.23;47.43;;;;;;;6.03;76.42;99772.86;2169864;81;21060;-80
2021/10/27 05:22:20;;;;;;;85.70;47.70;;;;;;;5.99;76.51;99777.44;2170614;81;20984;-80
2021/10/27 05:25:21;;;;;;;78.27;43.87;;;;;;;6.00;76.37;99774.02;2169072;81;20937;-80
2021/10/27 05:28:22;;;;;;;80.00;42.33;;;;;;;5.95;76.24;99780.70;2168353;81;21384;-79
2021/10/27 05:31:22;;;;;;;69.90;42.17;;;;;;;5.89;76.13;99782.98;2169021;81;21048;-81
2021/10/27 05:34:22;;;;;;;71.57;41.13;;;;;;;5.81;76.01;99783.94;2168928;81;21012;-80
2021/10/27 05:37:23;;;;;;;70.30;42.30;;;;;;;5.73;75.98;99792.66;2169052;81;21340;-79
2021/10/27 05:40:24;;;;;;;83.20;44.40;;;;;;;5.63;76.27;99792.16;2169609;81;21344;-80
2021/10/27 05:43:25;;;;;;;71.97;40.50;;;;;;;5.56;76.33;99795.28;2169754;81;20984;-80
2021/10/27 05:46:26;;;;;;;81.13;42.63;;;;;;;5.48;76.48;99791.05;2169021;81;21067;-79
2021/10/27 05:49:51;;;;;;;71.57;39.83;;;;;;;5.43;76.63;99790.83;2168132;81;21032;-80
2021/10/27 05:56:00;;;;;;;68.77;37.47;;;;;;;5.35;76.64;99791.28;2168746;82;21000;-80
2021/10/27 05:59:00;;;;;;;72.67;41.70;;;;;;;5.33;76.50;99798.09;2169243;81;20952;-81
2021/10/27 06:02:07;;;;;;;75.23;41.43;;;;;;;5.32;76.72;99795.02;2167980;81;20968;-79
2021/10/27 06:05:07;;;;;;;75.07;44.63;;;;;;;5.32;76.81;99800.20;2167631;81;21404;-79
2021/10/27 06:08:08;;;;;;;71.70;42.13;;;;;;;5.37;77.02;99803.89;2167587;82;20949;-79
2021/10/27 06:11:10;;;;;;;79.57;45.70;;;;;;;5.42;76.82;99802.41;2168846;81;21374;-80
2021/10/27 06:14:11;;;;;;;83.27;44.43;;;;;;;5.46;76.87;99808.21;2168863;81;21646;-77
2021/10/27 06:17:11;;;;;;;85.20;45.93;;;;;;;5.53;77.00;99806.39;2168919;81;21032;-80
2021/10/27 06:20:14;;;;;;;82.33;46.47;;;;;;;5.64;77.41;99815.55;2169035;81;20996;-80
2021/10/27 06:23:15;;;;;;;77.97;43.07;;;;;;;5.82;77.23;99809.03;2168278;81;20968;-78
2021/10/27 06:26:15;;;;;;;86.97;44.53;;;;;;;5.97;76.98;99803.69;2169090;81;20980;-80
2021/10/27 06:29:37;;;;;;;87.03;44.20;;;;;;;6.04;76.64;99802.73;2168590;81;21360;-80
2021/10/27 06:32:33;;;;;;;77.20;44.33;;;;;;;6.16;76.62;99816.69;2167683;81;20964;-80
2021/10/27 06:35:31;;;;;;;77.97;41.23;;;;;;;6.45;76.58;99815.38;2169024;81;21001;-81
2021/10/27 06:39:08;;;;;;;71.23;43.13;;;;;;;6.45;76.58;99815.38;2169536;81;21013;-79
2021/10/27 06:48:15;;;;;;;73.53;43.23;;;;;;;6.92;76.48;99825.59;2168538;82;21427;-79
2021/10/27 06:51:16;;;;;;;66.90;41.03;;;;;;;7.18;76.32;99824.10;2168172;81;20973;-79
2021/10/27 06:54:16;;;;;;;68.53;41.57;;;;;;;7.40;75.84;99829.34;2167463;81;20989;-79
2021/10/27 06:57:19;;;;;;;67.90;41.53;;;;;;;7.59;75.59;99827.05;2168432;81;20976;-79
2021/10/27 07:00:23;;;;;;;60.77;37.67;;;;;;;7.80;75.19;99829.22;2168988;82;21684;-79
2021/10/27 07:03:41;;;;;;;71.27;44.57;;;;;;;8.01;74.66;99830.86;2168840;81;21075;-79
2021/10/27 07:16:13;;;;;;;69.73;40.40;;;;;;;8.63;73.00;99838.38;2169120;82;20980;-79
2021/10/27 07:19:14;;;;;;;63.83;37.93;;;;;;;8.73;72.76;99843.10;2168535;82;21012;-78
2021/10/27 07:22:14;;;;;;;56.97;36.77;;;;;;;8.87;72.37;99850.98;2169355;81;20956;-78
2021/10/27 07:25:16;;;;;;;54.97;35.70;;;;;;;9.02;72.21;99848.01;2169437;81;20957;-78
2021/10/27 07:28:19;;;;;;;56.23;35.83;;;;;;;9.18;71.91;99831.17;2169393;81;21008;-78
2021/10/27 07:31:19;;;;;;;50.53;33.33;;;;;;;9.36;71.48;99837.40;2168520;81;20972;-80
2021/10/27 07:34:28;;;;;;;51.47;34.93;;;;;;;9.47;70.94;99845.14;2169523;82;20941;-79
2021/10/27 07:40:45;;;;;;;48.80;32.73;;;;;;;9.66;70.41;99836.22;2169312;82;20948;-80
2021/10/27 07:43:46;;;;;;;53.93;34.53;;;;;;;9.74;70.28;99842.55;2169276;81;21007;-79
2021/10/27 07:46:46;;;;;;;56.13;35.27;;;;;;;9.87;70.10;99849.49;2169603;81;20972;-79
2021/10/27 07:49:47;;;;;;;54.70;33.57;;;;;;;9.99;69.85;99859.41;2168696;82;21047;-79
2021/10/27 07:52:48;;;;;;;60.87;31.90;;;;;;;10.06;69.47;99858.76;2169017;82;21430;-80
2021/10/27 07:55:50;;;;;;;50.77;32.20;;;;;;;10.13;69.18;99852.00;2168887;81;21404;-79
2021/10/27 07:58:53;;;;;;;49.03;30.83;;;;;;;10.28;69.21;99858.12;2169299;82;20989;-79
2021/10/27 08:01:54;;;;;;;48.97;31.53;;;;;;;10.44;68.93;99852.11;2168906;81;20956;-78
2021/10/27 08:04:56;;;;;;;47.13;32.07;;;;;;;10.58;68.21;99847.69;2169319;81;20948;-79
2021/10/27 08:07:57;;;;;;;50.80;33.17;;;;;;;10.65;68.16;99837.45;2169527;81;20980;-78
2021/10/27 08:10:59;;;;;;;50.13;31.97;;;;;;;10.80;67.99;99828.73;2168077;82;20968;-79
2021/10/27 08:14:00;;;;;;;49.70;31.67;;;;;;;10.90;67.47;99827.24;2168570;81;20956;-78
2021/10/27 08:17:00;;;;;;;48.58;31.62;;;;;;;11.09;67.29;99833.83;2167955;81;20949;-78
2021/10/27 08:20:01;;;;;;;48.73;30.43;;;;;;;11.20;66.50;99834.98;2168940;81;20996;-80
2021/10/27 08:23:03;;;;;;;45.75;30.45;;;;;;;11.32;66.51;99837.92;2168722;81;20917;-79
2021/10/27 08:26:07;;;;;;;45.45;29.85;;;;;;;11.41;66.23;99842.07;2168884;81;21061;-79
2021/10/27 08:29:13;;;;;;;48.90;30.23;;;;;;;11.54;65.94;99839.33;2167756;81;21055;-80
2021/10/27 08:32:29;;;;;;;47.13;29.45;;;;;;;11.62;65.35;99844.73;2167792;82;21003;-80
2021/10/27 08:35:17;;;;;;;37.40;24.43;;;;;;;11.76;65.44;99851.17;2166752;82;20972;-80
2021/10/27 08:38:17;;;;;;;37.50;27.45;;;;;;;11.88;64.97;99853.22;2168098;82;21395;-79
2021/10/27 08:41:18;;;;;;;52.15;27.17;;;;;;;11.97;65.01;99859.53;2169102;82;21297;-79
2021/10/27 08:44:19;;;;;;;160.30;32.28;;;;;;;12.11;64.57;99852.88;2168995;81;21364;-81
2021/10/27 08:47:19;;;;;;;34.78;24.60;;;;;;;12.25;63.78;99843.16;2169253;82;20949;-77
2021/10/27 08:50:20;;;;;;;33.08;22.05;;;;;;;12.30;63.75;99847.63;2169270;82;21008;-80
2021/10/27 08:53:21;;;;;;;43.92;24.65;;;;;;;12.42;63.30;99847.88;2169520;81;20971;-79
2021/10/27 08:56:22;;;;;;;34.65;22.77;;;;;;;12.57;63.85;99848.61;2169683;81;21337;-79
2021/10/27 08:59:33;;;;;;;26.95;19.73;;;;;;;12.76;63.46;99849.42;2170716;81;20988;-80
2021/10/27 09:02:51;;;;;;;27.70;19.20;;;;;;;12.90;62.56;99843.56;2169111;81;20995;-80
2021/10/27 09:06:01;;;;;;;28.15;20.37;;;;;;;13.05;62.43;99849.11;2168624;81;21000;-78
2021/10/27 09:35:40;;;;;;;25.75;16.32;;;;;;;14.03;59.90;99849.87;2172011;82;21026;-80
2021/10/27 09:41:50;;;;;;;22.98;16.75;;;;;;;14.22;58.75;99844.43;2160610;82;20975;-80
2021/10/27 09:55:37;;;;;;;22.15;13.10;;;;;;;14.33;58.19;99838.88;2169669;82;20937;-80
2021/10/27 10:04:27;;;;;;;22.58;13.60;;;;;;;14.51;57.64;99820.30;2168856;82;20968;-81
2021/10/27 10:07:29;;;;;;;21.55;15.35;;;;;;;14.54;57.70;99825.16;2170477;81;20952;-80
2021/10/27 10:10:29;;;;;;;26.15;19.32;;;;;;;14.53;57.20;99818.57;2168294;81;20949;-81
2021/10/27 10:13:34;;;;;;;21.90;14.28;;;;;;;14.56;57.79;99822.11;2167760;82;21380;-80
2021/10/27 10:16:33;;;;;;;21.40;14.43;;;;;;;14.61;57.36;99819.11;2168505;81;20993;-80
2021/10/27 10:19:35;;;;;;;14.75;12.10;;;;;;;14.62;57.17;99819.55;2168860;82;21472;-81
2021/10/27 10:22:36;;;;;;;86.90;17.00;;;;;;;14.60;56.37;99819.97;2168710;81;20948;-79
2021/10/27 10:25:36;;;;;;;22.77;12.23;;;;;;;14.69;56.64;99811.73;2169058;82;20917;-80
2021/10/27 10:28:37;;;;;;;19.75;12.18;;;;;;;14.78;56.35;99819.75;2168732;81;21132;-79
2021/10/27 10:31:39;;;;;;;13.83;9.83;;;;;;;14.84;56.04;99821.13;2168785;81;21000;-80
2021/10/27 10:34:39;;;;;;;16.80;10.95;;;;;;;14.92;55.37;99831.28;2169907;81;21028;-81
2021/10/27 10:37:50;;;;;;;19.62;11.40;;;;;;;14.85;54.87;99826.40;2169068;81;20988;-80
2021/10/27 11:23:12;;;;;;;16.25;11.00;;;;;;;15.24;53.74;99800.91;2170088;82;20941;-77
2021/10/27 11:26:12;;;;;;;15.80;10.45;;;;;;;15.24;52.23;99796.08;2168615;81;21056;-79
2021/10/27 11:39:10;;;;;;;14.95;8.58;;;;;;;15.35;52.49;99789.59;2169860;82;20977;-82
2021/10/27 11:42:16;;;;;;;18.45;9.00;;;;;;;15.44;52.61;99792.28;2126732;84;20963;-81
2021/10/27 11:45:10;;;;;;;14.25;9.65;;;;;;;15.41;52.35;99790.95;2168951;81;21724;-79
2021/10/27 11:48:24;;;;;;;15.83;7.85;;;;;;;15.38;52.48;99787.86;2127853;83;21043;-80
2021/10/27 11:51:22;;;;;;;11.45;6.37;;;;;;;15.40;51.59;99789.19;2169406;81;20976;-80
2021/10/27 11:54:26;;;;;;;12.07;7.30;;;;;;;15.37;51.81;99791.80;2170176;81;20984;-81
2021/10/27 11:57:25;;;;;;;9.30;6.67;;;;;;;15.40;51.25;99790.50;2127036;83;20972;-81
2021/10/27 12:00:36;;;;;;;9.03;6.47;;;;;;;15.40;51.82;99788.75;2126508;84;21336;-80
2021/10/27 12:03:36;;;;;;;15.45;7.90;;;;;;;15.42;51.68;99784.82;2169274;81;20949;-81
2021/10/27 12:06:51;;;;;;;11.53;7.17;;;;;;;15.53;52.06;99783.14;2169731;81;20928;-80
2021/10/27 12:13:08;;;;;;;19.82;9.88;;;;;;;15.51;51.87;99773.05;2126628;83;20963;-80
2021/10/27 12:16:25;;;;;;;16.20;8.23;;;;;;;15.57;50.45;99769.14;2127316;84;20955;-79
2021/10/27 12:19:11;;;;;;;12.23;7.20;;;;;;;15.63;51.11;99768.36;2167160;81;21502;-81
2021/10/27 12:22:12;;;;;;;14.93;7.92;;;;;;;15.72;50.70;99771.92;2169122;81;20981;-80
2021/10/27 12:25:13;;;;;;;17.50;8.28;;;;;;;15.75;50.70;99761.41;2169922;82;20979;-81
2021/10/27 12:28:13;;;;;;;13.72;9.20;;;;;;;15.86;50.16;99762.79;2169979;82;21407;-80
2021/10/27 12:31:14;;;;;;;17.40;9.18;;;;;;;15.90;49.88;99766.77;2169816;82;20981;-81
2021/10/27 12:34:14;;;;;;;9.70;7.10;;;;;;;15.93;49.92;99761.95;2170163;81;20996;-80
2021/10/27 12:37:15;;;;;;;10.95;7.25;;;;;;;15.94;49.75;99762.39;2169367;81;20949;-80
2021/10/27 12:40:19;;;;;;;12.35;6.95;;;;;;;15.95;49.56;99760.64;2170054;81;21341;-79
2021/10/27 12:43:17;;;;;;;11.03;6.05;;;;;;;15.86;50.09;99761.47;2126886;84;21744;-80
2021/10/27 12:46:19;;;;;;;70.70;47.98;;;;;;;15.81;49.89;99758.81;2127659;84;20956;-80
2021/10/27 12:49:20;;;;;;;15.53;8.15;;;;;;;15.79;49.86;99757.93;2169298;81;21043;-79
2021/10/27 12:52:25;;;;;;;11.73;6.62;;;;;;;15.77;49.40;99758.36;2169044;82;21026;-80
2021/10/27 12:55:23;;;;;;;11.95;6.55;;;;;;;15.77;49.95;99759.67;2126800;83;20947;-79
2021/10/27 12:58:24;;;;;;;9.60;5.92;;;;;;;15.84;50.26;99764.09;2127044;84;20948;-80
2021/10/27 13:04:44;;;;;;;17.02;6.80;;;;;;;15.71;49.68;99768.85;2161241;82;20957;-80
2021/10/27 13:07:39;;;;;;;15.10;7.45;;;;;;;15.65;50.28;99764.87;2126198;83;20991;-79
2021/10/27 13:10:48;;;;;;;16.27;7.83;;;;;;;15.56;49.93;99763.42;2126830;83;21754;-80
2021/10/27 13:23:36;;;;;;;42.33;21.93;;;;;;;14.98;50.80;99759.93;2161443;82;21051;-78
2021/10/27 13:29:50;;;;;;;16.77;9.40;;;;;;;14.94;51.41;99750.25;2171506;82;21001;-79
2021/10/27 13:32:53;;;;;;;23.50;12.45;;;;;;;14.88;50.96;99754.14;2125387;83;20987;-79
2021/10/27 13:35:55;;;;;;;35.43;16.85;;;;;;;14.82;51.64;99751.89;2171436;81;21293;-79
2021/10/27 13:38:59;;;;;;;37.53;17.55;;;;;;;14.78;51.45;99758.88;2171733;81;20972;-78
2021/10/27 13:42:01;;;;;;;50.05;22.20;;;;;;;14.76;51.75;99755.78;2171705;81;21040;-79
2021/10/27 13:58:29;;;;;;;22.73;12.00;;;;;;;14.82;51.96;99742.69;2173510;82;21381;-79
2021/10/27 14:07:57;;;;;;;12.50;7.22;;;;;;;14.76;52.49;99728.19;2171639;82;21031;-80
2021/10/27 14:11:02;;;;;;;11.95;7.03;;;;;;;14.78;52.67;99727.77;2127875;84;21030;-80
2021/10/27 14:14:18;;;;;;;14.23;7.15;;;;;;;14.80;52.61;99728.66;2171448;81;21005;-79
2021/10/27 14:22:12;;;;;;;;;;;;;;;14.68;52.57;99719.31;2163767;82;21031;-79
2021/10/27 14:40:31;;;;;;;29.40;13.72;;;;;;;14.18;54.19;99726.21;2169715;82;21378;-77
2021/10/27 15:25:49;;;;;;;28.70;12.78;;;;;;;12.25;58.71;99740.64;2162240;82;21044;-79
2021/10/27 15:28:48;;;;;;;117.25;18.73;;;;;;;12.03;58.99;99743.65;2169536;82;21405;-79
2021/10/27 15:32:14;;;;;;;52.10;15.00;;;;;;;11.83;59.70;99744.97;2170196;81;20985;-81
2021/10/27 15:34:53;;;;;;;58.00;14.70;;;;;;;11.66;60.20;99748.08;2168880;82;21020;-79
2021/10/27 15:51:02;;;;;;;21.03;10.57;;;;;;;10.65;62.89;99751.72;2170123;82;21446;-79
2021/10/27 15:54:00;;;;;;;17.87;10.27;;;;;;;10.43;63.47;99745.94;2171059;81;21048;-79
2021/10/27 15:57:01;;;;;;;20.13;10.70;;;;;;;10.24;63.90;99750.16;2171489;82;21348;-80
2021/10/27 16:00:02;;;;;;;25.73;12.37;;;;;;;10.08;64.62;99751.42;2171428;82;20962;-79
2021/10/27 16:03:03;;;;;;;24.23;13.93;;;;;;;9.92;64.80;99753.14;2171083;81;20981;-79
2021/10/27 16:06:03;;;;;;;24.77;13.63;;;;;;;9.79;65.26;99745.80;2170679;82;20973;-78
2021/10/27 16:09:07;;;;;;;48.00;23.40;;;;;;;9.65;65.41;99743.20;2170576;82;20976;-79
2021/10/27 16:12:07;;;;;;;58.97;25.60;;;;;;;9.47;65.88;99738.30;2170857;81;21020;-78
2021/10/27 16:15:13;;;;;;;48.10;26.13;;;;;;;9.32;66.62;99745.64;2170827;82;20957;-79
2021/10/27 16:18:12;;;;;;;63.70;31.63;;;;;;;9.23;67.12;99742.33;2170494;81;21016;-79
2021/10/27 16:21:13;;;;;;;57.80;29.93;;;;;;;9.14;67.44;99745.53;2170479;82;20973;-79
2021/10/27 16:24:14;;;;;;;64.00;32.13;;;;;;;9.11;67.60;99749.77;2170544;82;21357;-78
2021/10/27 16:27:14;;;;;;;129.87;34.97;;;;;;;9.11;67.78;99748.45;2170220;82;20929;-78
2021/10/27 16:30:15;;;;;;;74.87;28.03;;;;;;;9.13;67.86;99750.27;2170518;81;21031;-79
2021/10/27 16:33:18;;;;;;;70.77;28.33;;;;;;;9.12;67.81;99752.83;2170258;82;21383;-78
2021/10/27 16:36:18;;;;;;;61.53;23.00;;;;;;;9.09;67.83;99754.03;2170389;81;20981;-79
2021/10/27 16:39:19;;;;;;;26.33;15.80;;;;;;;9.05;67.90;99751.75;2170477;81;21317;-78
2021/10/27 16:42:20;;;;;;;25.83;15.20;;;;;;;9.07;67.89;99764.82;2170604;81;21058;-79
2021/10/27 16:45:20;;;;;;;53.43;20.90;;;;;;;9.05;68.05;99761.28;2169778;81;20938;-78
2021/10/27 16:48:21;;;;;;;37.97;19.87;;;;;;;9.00;68.12;99758.53;2169930;81;20988;-80
2021/10/27 16:51:22;;;;;;;38.10;18.47;;;;;;;8.94;68.08;99754.00;2170135;81;21027;-79
2021/10/27 16:54:22;;;;;;;38.00;20.70;;;;;;;8.91;68.31;99752.61;2170237;81;20963;-79
2021/10/27 16:57:23;;;;;;;33.30;19.00;;;;;;;8.85;68.17;99752.82;2170473;81;21020;-81
2021/10/27 17:00:24;;;;;;;34.37;19.83;;;;;;;8.78;68.35;99758.24;2170732;81;21008;-80
2021/10/27 17:03:24;;;;;;;100.57;62.00;;;;;;;8.74;68.79;99760.69;2170499;81;20984;-79
2021/10/27 17:06:25;;;;;;;53.77;28.93;;;;;;;8.65;69.10;99761.23;2171118;81;20977;-80
2021/10/27 17:09:25;;;;;;;48.33;27.67;;;;;;;8.57;69.39;99763.58;2169594;81;21054;-80
2021/10/27 17:12:26;;;;;;;55.00;29.00;;;;;;;8.52;69.45;99770.75;2170226;81;20973;-80
2021/10/27 17:15:27;;;;;;;53.83;28.50;;;;;;;8.43;69.80;99768.72;2170053;81;20966;-80
2021/10/27 17:18:31;;;;;;;60.53;28.47;;;;;;;8.40;70.09;99770.33;2170271;81;21013;-80
2021/10/27 17:21:31;;;;;;;57.50;26.57;;;;;;;8.37;69.94;99771.52;2170198;81;21416;-79
2021/10/27 17:24:31;;;;;;;48.57;25.23;;;;;;;8.34;70.13;99775.31;2170999;82;21352;-79
2021/10/27 17:27:36;;;;;;;43.73;23.73;;;;;;;8.32;70.37;99784.33;2170919;81;20972;-80
2021/10/27 17:30:36;;;;;;;45.27;23.83;;;;;;;8.27;70.32;99788.07;2170886;81;21029;-80
2021/10/27 17:33:37;;;;;;;45.50;24.53;;;;;;;9.77;77.87;99787.89;2170724;81;21353;-80
2021/10/27 17:36:38;;;;;;;51.47;23.13;;;;;;;11.35;72.75;99790.95;2170920;81;20932;-80
2021/10/27 17:39:41;;;;;;;48.87;24.40;;;;;;;12.23;70.06;99788.15;2171268;82;20989;-81
2021/10/27 17:42:44;;;;;;;43.00;22.17;;;;;;;12.98;68.38;99794.78;2170739;81;20933;-80
2021/10/27 17:45:44;;;;;;;47.83;22.53;;;;;;;12.52;63.06;99797.88;2170524;81;21021;-80
2021/10/27 17:48:55;;;;;;;43.97;21.13;;;;;;;11.43;62.70;99797.23;2170583;81;21024;-80
2021/10/27 17:51:59;;;;;;;43.33;21.97;;;;;;;10.61;63.42;99805.58;2169205;81;21380;-80
2021/10/27 18:01:23;;;;;;;42.27;23.07;;;;;;;9.06;65.88;99812.53;2161972;82;20969;-81
2021/10/27 18:04:23;;;;;;;42.73;22.17;;;;;;;8.74;66.76;99811.03;2170560;81;21399;-80
2021/10/27 18:07:27;;;;;;;41.20;23.20;;;;;;;8.45;67.42;99807.80;2171040;81;20953;-81